Time;durP1;ratioP1;P1;durP2;ratioP2;P2;SDS_P1;SDS_P2;PMS_P1;PMS_P2;Temp;Humidity;BMP_temperature;BMP_pressure;BME280_temperature;BME280_humidity;BME280_pressure;Samples;Min_cycle;Max_cycle;Signal;HPM_P1;HPM_P2
2022/02/11 00:00:02;;;;;;;9.80;3.63;;;;;;;12.85;59.37;102010.59;2065470;28;20424;-72
2022/02/11 00:01:16;;;;;;;7.82;2.67;;;;;;;12.85;59.37;102007.94;2071355;28;20046;-72
2022/02/11 00:02:19;;;;;;;9.73;3.00;;;;;;;12.83;59.36;101993.75;2072065;28;20084;-72
2022/02/11 00:04:52;;;;;;;10.02;3.63;;;;;;;12.83;59.25;101999.03;2064621;28;20125;-71
2022/02/11 00:06:19;;;;;;;11.40;2.72;;;;;;;12.83;59.24;102004.34;2068426;28;20045;-71
2022/02/11 00:07:24;;;;;;;11.48;3.20;;;;;;;12.83;59.21;102007.00;2067648;28;20049;-72
2022/02/11 00:08:29;;;;;;;13.60;3.97;;;;;;;12.82;59.22;102005.19;2064834;28;20038;-71
2022/02/11 00:09:31;;;;;;;11.23;3.17;;;;;;;12.80;59.32;102005.16;2071830;28;20038;-71
2022/02/11 00:10:33;;;;;;;;;;;;;;;12.77;59.20;102005.09;2072702;28;20061;-72
2022/02/11 00:11:35;;;;;;;8.50;2.95;;;;;;;12.71;59.25;102004.91;2072381;28;19924;-71
2022/02/11 00:12:38;;;;;;;9.30;2.47;;;;;;;12.71;59.23;102005.81;2073244;28;20053;-72
2022/02/11 00:13:40;;;;;;;8.93;3.05;;;;;;;12.72;59.23;102002.31;2072757;28;20061;-71
2022/02/11 00:14:50;;;;;;;8.73;3.40;;;;;;;12.72;59.14;102004.97;2064565;28;20043;-71
2022/02/11 00:15:54;;;;;;;8.93;3.05;;;;;;;12.71;59.03;102008.47;2065153;28;20077;-72
2022/02/11 00:16:56;;;;;;;11.68;2.42;;;;;;;12.70;58.96;102004.03;2064602;28;20042;-71
2022/02/11 00:17:59;;;;;;;9.68;2.63;;;;;;;12.69;58.93;102004.88;2072733;28;20046;-71
2022/02/11 00:19:02;;;;;;;6.10;2.22;;;;;;;12.67;58.87;102003.91;2080517;28;20116;-71
2022/02/11 00:20:08;;;;;;;12.00;3.10;;;;;;;12.65;58.83;102000.34;2072607;28;20130;-71
2022/02/11 00:21:13;;;;;;;7.85;2.83;;;;;;;12.64;58.76;102006.50;2065203;28;20122;-71
2022/02/11 00:22:14;;;;;;;11.80;4.20;;;;;;;12.63;58.76;102004.72;2071803;28;20120;-71
2022/02/11 00:23:18;;;;;;;11.57;3.83;;;;;;;12.62;58.71;102000.25;2072136;28;20566;-71
2022/02/11 00:24:22;;;;;;;7.85;3.38;;;;;;;12.63;58.78;102006.47;2056830;28;20090;-71
2022/02/11 00:25:25;;;;;;;7.07;2.92;;;;;;;12.63;58.62;102009.09;2064241;28;20121;-71
2022/02/11 00:26:31;;;;;;;6.78;2.40;;;;;;;12.65;58.61;102005.66;2072785;28;20045;-71
2022/02/11 00:27:51;;;;;;;7.30;2.60;;;;;;;12.68;58.61;102005.72;2072366;28;20050;-71
2022/02/11 00:31:55;;;;;;;8.70;2.45;;;;;;;12.71;58.19;102005.81;2072133;28;20129;-71
2022/02/11 00:33:06;;;;;;;6.03;2.97;;;;;;;12.69;58.22;101994.28;2073409;28;20176;-71
2022/02/11 00:34:07;;;;;;;12.48;2.78;;;;;;;12.69;58.23;101975.72;2072504;28;20121;-71
2022/02/11 00:35:21;;;;;;;;;;;;;;;12.69;58.18;101985.44;2064622;28;20539;-71
2022/02/11 00:36:28;;;;;;;7.13;2.30;;;;;;;12.65;58.06;101988.88;2073774;28;19921;-71
2022/02/11 00:37:34;;;;;;;7.22;2.45;;;;;;;12.61;58.22;101982.56;2072236;28;20129;-71
2022/02/11 00:38:51;;;;;;;7.18;2.33;;;;;;;12.59;58.22;101983.41;2065113;28;20054;-71
2022/02/11 00:40:13;;;;;;;8.65;3.22;;;;;;;12.56;58.31;101988.59;2074246;28;20042;-71
2022/02/11 01:02:44;;;;;;;5.97;2.30;;;;;;;12.21;58.60;101990.25;2071991;28;20531;-72
2022/02/11 01:03:56;;;;;;;6.13;1.95;;;;;;;12.20;58.55;101992.03;2080520;28;20045;-72
2022/02/11 01:04:59;;;;;;;;;;;;;;;12.23;58.54;101985.91;2081668;28;20049;-71
2022/02/11 01:06:00;;;;;;;7.40;2.30;;;;;;;12.21;58.64;101979.66;2072124;28;19948;-71
2022/02/11 01:07:04;;;;;;;7.45;1.92;;;;;;;12.23;58.62;101977.97;2064327;28;20045;-71
2022/02/11 01:08:05;;;;;;;4.78;2.25;;;;;;;12.24;59.32;101979.78;2064490;28;20046;-71
2022/02/11 01:09:12;;;;;;;7.07;2.40;;;;;;;12.23;59.44;101973.56;2071428;28;20074;-72
2022/02/11 01:10:16;;;;;;;6.95;2.08;;;;;;;12.22;59.39;101976.16;2071987;28;20425;-72
2022/02/11 01:11:26;;;;;;;6.70;3.17;;;;;;;12.21;59.41;101980.56;2064593;28;20077;-72
2022/02/11 01:12:29;;;;;;;6.95;2.38;;;;;;;12.19;59.25;101984.94;2073619;28;20425;-72
2022/02/11 01:13:31;;;;;;;6.35;2.95;;;;;;;12.18;59.08;101990.19;2080397;28;20189;-71
2022/02/11 01:14:35;;;;;;;6.32;2.58;;;;;;;12.17;58.96;101986.63;2072264;28;20050;-72
2022/02/11 01:15:41;;;;;;;10.68;2.70;;;;;;;12.17;59.14;101993.69;2064493;28;20569;-71
2022/02/11 01:16:47;;;;;;;8.77;2.45;;;;;;;12.17;59.06;102001.63;2064707;28;20558;-71
2022/02/11 01:17:54;;;;;;;9.07;3.05;;;;;;;12.18;59.14;102001.69;2064991;28;20477;-72
2022/02/11 01:19:03;;;;;;;7.28;2.30;;;;;;;12.21;59.29;102007.03;2057322;28;20054;-71
2022/02/11 01:20:12;;;;;;;6.60;2.05;;;;;;;12.25;59.21;101995.72;2058524;28;20475;-72
2022/02/11 01:21:21;;;;;;;6.00;1.92;;;;;;;12.26;59.36;101981.63;2064815;28;20149;-73
2022/02/11 01:22:46;;;;;;;5.55;1.98;;;;;;;12.28;59.35;101973.69;2065256;28;20042;-74
2022/02/11 01:24:39;;;;;;;6.80;2.50;;;;;;;12.29;59.34;101979.03;2045681;28;20475;-71
2022/02/11 01:25:54;;;;;;;4.38;2.25;;;;;;;12.24;59.51;101966.53;2064744;28;20493;-72
2022/02/11 01:27:16;;;;;;;4.00;1.90;;;;;;;12.22;59.54;101978.81;2063818;28;20050;-72
2022/02/11 01:28:33;;;;;;;6.43;2.33;;;;;;;12.18;59.65;101985.78;2069607;28;20065;-72
2022/02/11 01:31:01;;;;;;;5.40;2.00;;;;;;;12.16;59.78;102002.47;2071293;28;20440;-72
2022/02/11 01:32:19;;;;;;;8.40;2.60;;;;;;;12.18;59.80;102009.63;2072216;28;20473;-73
2022/02/11 01:35:08;;;;;;;5.60;2.83;;;;;;;12.22;59.79;102006.19;2042907;29;20129;-72
2022/02/11 01:36:23;;;;;;;8.27;4.10;;;;;;;12.25;59.79;102008.94;2069904;28;20057;-71
2022/02/11 01:37:35;;;;;;;7.97;3.50;;;;;;;12.29;59.78;102004.63;2071911;28;20038;-72
2022/02/11 01:38:48;;;;;;;;;;;;;;;12.33;59.65;101995.94;2064494;28;20047;-72
2022/02/11 01:44:40;;;;;;;5.18;2.75;;;;;;;12.27;59.50;101974.56;2066582;28;19925;-71
2022/02/11 01:52:24;;;;;;;6.40;2.53;;;;;;;12.09;59.92;101998.75;2071915;28;20038;-72
2022/02/11 01:53:34;;;;;;;9.45;3.13;;;;;;;12.10;59.97;102003.19;2055624;28;20522;-72
2022/02/11 01:54:49;;;;;;;6.05;2.72;;;;;;;12.11;59.96;101999.69;2060126;28;20054;-71
2022/02/11 01:56:12;;;;;;;13.10;3.88;;;;;;;12.16;59.97;101998.06;2064065;28;20462;-72
2022/02/11 01:57:32;;;;;;;6.10;2.45;;;;;;;12.20;59.90;101999.06;2066782;28;20041;-72
2022/02/11 02:00:22;;;;;;;7.18;3.22;;;;;;;12.26;59.81;101981.63;2047187;29;20047;-71
2022/02/11 02:09:59;;;;;;;7.18;2.50;;;;;;;12.42;59.29;101979.38;2051145;28;20046;-72
2022/02/11 02:14:00;;;;;;;10.57;3.42;;;;;;;12.45;59.52;101984.78;2027075;29;24387;-71
2022/02/11 02:19:53;;;;;;;7.18;3.42;;;;;;;12.59;59.32;101980.75;2063417;28;20065;-72
2022/02/11 02:22:38;;;;;;;5.68;2.53;;;;;;;12.62;59.31;101973.75;2047265;28;20039;-72
2022/02/11 02:25:27;;;;;;;6.82;3.33;;;;;;;12.65;59.24;101979.16;2052742;28;20041;-71
2022/02/11 02:26:46;;;;;;;7.18;2.72;;;;;;;12.66;59.22;101977.41;2069650;28;20132;-72
2022/02/11 02:28:05;;;;;;;7.97;3.00;;;;;;;12.64;59.25;101973.81;2071815;28;20048;-72
2022/02/11 02:35:01;;;;;;;6.35;2.78;;;;;;;12.56;59.46;101976.25;2075280;28;20037;-72
2022/02/11 02:36:33;;;;;;;;;;;;;;;12.60;59.47;101982.56;2073508;28;20377;-72
2022/02/11 02:56:44;;;;;;;8.75;3.20;;;;;;;12.04;59.72;101970.34;2048659;29;20050;-76
2022/02/11 02:57:49;;;;;;;7.30;3.17;;;;;;;11.98;59.83;101979.91;2067108;28;20041;-72
2022/02/11 02:58:59;;;;;;;7.47;3.13;;;;;;;11.97;59.82;101988.72;2073394;28;20046;-72
2022/02/11 03:00:17;;;;;;;12.27;3.90;;;;;;;11.95;60.07;101981.56;2074443;28;20050;-71
2022/02/11 03:16:32;;;;;;;6.68;3.75;;;;;;;12.20;60.66;101988.50;2059055;28;20047;-71
2022/02/11 03:17:58;;;;;;;6.25;3.20;;;;;;;12.19;60.76;101992.88;2078438;28;20111;-71
2022/02/11 03:35:03;;;;;;;6.35;3.15;;;;;;;12.33;61.61;101998.56;2064569;28;20066;-72
2022/02/11 03:49:36;;;;;;;7.22;2.80;;;;;;;12.31;62.22;101989.69;2081201;28;20121;-72
2022/02/11 03:52:18;;;;;;;14.57;4.80;;;;;;;12.32;62.45;101995.03;2077912;28;20523;-72
2022/02/11 03:55:21;;;;;;;12.38;4.88;;;;;;;12.37;62.57;101982.81;2072790;28;20034;-72
2022/02/11 03:58:02;;;;;;;17.02;6.22;;;;;;;12.38;62.59;101983.72;2059119;28;20043;-72
2022/02/11 04:22:41;;;;;;;15.13;6.25;;;;;;;12.22;62.62;101994.69;2064385;28;20178;-72
2022/02/11 04:55:44;;;;;;;6.38;2.95;;;;;;;11.90;62.74;102021.13;2065771;28;20109;-72
2022/02/11 04:56:47;;;;;;;7.90;3.15;;;;;;;11.90;62.85;102025.50;2064535;28;20046;-72
2022/02/11 05:00:29;;;;;;;6.25;2.50;;;;;;;11.80;63.03;102029.66;2079911;28;20056;-72
2022/02/11 05:01:32;;;;;;;9.73;2.00;;;;;;;11.78;63.12;102027.78;2072166;28;20069;-72
2022/02/11 05:02:35;;;;;;;7.43;2.42;;;;;;;11.76;63.22;102034.78;2064443;28;20046;-72
2022/02/11 05:03:38;;;;;;;8.40;2.58;;;;;;;11.75;63.27;102033.88;2064417;28;20043;-72
2022/02/11 05:04:41;;;;;;;7.55;2.55;;;;;;;11.74;63.36;102028.56;2064556;28;20038;-73
2022/02/11 05:05:52;;;;;;;7.82;2.30;;;;;;;11.74;63.47;102039.16;2063223;28;20042;-72
2022/02/11 05:06:55;;;;;;;7.68;2.33;;;;;;;11.69;63.43;102038.94;2073761;28;20095;-72
2022/02/11 05:08:01;;;;;;;6.75;1.85;;;;;;;11.67;63.52;102045.94;2072175;28;20046;-71
2022/02/11 05:09:04;;;;;;;7.97;2.30;;;;;;;11.63;63.71;102054.63;2073281;28;20045;-72
2022/02/11 05:10:08;;;;;;;4.25;1.85;;;;;;;11.61;63.48;102052.78;2080863;28;20512;-72
2022/02/11 05:11:15;;;;;;;7.63;2.13;;;;;;;11.57;63.71;102057.97;2081024;28;20369;-72
2022/02/11 05:12:17;;;;;;;4.70;2.15;;;;;;;11.54;63.83;102059.63;2080857;28;20034;-72
2022/02/11 05:13:21;;;;;;;7.97;1.70;;;;;;;11.52;63.90;102056.03;2072151;28;20072;-72
2022/02/11 05:14:24;;;;;;;6.18;2.28;;;;;;;11.51;63.97;102054.22;2072309;28;20041;-72
2022/02/11 05:15:26;;;;;;;5.75;1.88;;;;;;;11.49;63.99;102053.28;2064423;28;20042;-72
2022/02/11 05:16:29;;;;;;;9.00;2.55;;;;;;;11.48;64.07;102056.78;2063878;28;20037;-72
2022/02/11 05:17:32;;;;;;;3.70;2.08;;;;;;;11.47;64.06;102053.25;2072735;28;20046;-71
2022/02/11 05:18:34;;;;;;;4.80;2.33;;;;;;;11.45;64.11;102057.56;2064199;28;20046;-72
2022/02/11 05:19:36;;;;;;;6.18;2.28;;;;;;;11.46;64.21;102064.66;2064406;28;20046;-71
2022/02/11 05:20:38;;;;;;;;;;;;;;;11.48;64.25;102060.34;2072816;28;20105;-72
2022/02/11 05:21:40;;;;;;;6.60;1.90;;;;;;;11.45;64.27;102062.88;2071860;28;20261;-73
2022/02/11 05:22:42;;;;;;;5.07;1.92;;;;;;;11.44;64.17;102061.06;2064127;28;20109;-73
2022/02/11 05:23:44;;;;;;;4.68;1.73;;;;;;;11.42;64.34;102065.38;2072116;28;20077;-72
2022/02/11 05:24:46;;;;;;;5.90;2.00;;;;;;;11.41;64.54;102068.00;2080275;28;20173;-73
2022/02/11 05:25:48;;;;;;;6.85;1.95;;;;;;;11.39;64.69;102069.69;2072137;28;20054;-72
2022/02/11 05:26:50;;;;;;;7.45;2.40;;;;;;;11.37;64.78;102066.09;2064120;28;20042;-72
2022/02/11 05:27:52;;;;;;;6.85;2.55;;;;;;;11.37;64.84;102066.09;2063994;28;20141;-72
2022/02/11 05:28:55;;;;;;;6.25;2.30;;;;;;;11.40;64.91;102064.47;2064305;28;20049;-72
2022/02/11 05:29:58;;;;;;;7.15;2.83;;;;;;;11.42;64.92;102068.03;2072488;28;20050;-71
2022/02/11 05:30:59;;;;;;;6.82;2.40;;;;;;;11.42;64.78;102072.47;2072047;28;20061;-72
2022/02/11 05:32:02;;;;;;;6.40;1.88;;;;;;;11.42;64.84;102062.75;2064542;28;20490;-72
2022/02/11 05:33:23;;;;;;;7.07;2.25;;;;;;;11.47;64.72;102065.56;2056497;28;20117;-72
2022/02/11 05:34:26;;;;;;;8.20;1.88;;;;;;;11.48;64.67;102065.63;2066322;28;20053;-72
2022/02/11 05:35:28;;;;;;;5.60;2.10;;;;;;;11.50;64.59;102066.56;2063946;28;20046;-73
2022/02/11 05:36:30;;;;;;;4.25;1.55;;;;;;;11.51;64.68;102067.44;2071933;28;20051;-73
2022/02/11 05:37:32;;;;;;;5.38;2.00;;;;;;;11.52;64.68;102067.50;2071856;28;20038;-72
2022/02/11 05:38:34;;;;;;;3.97;2.03;;;;;;;11.53;64.48;102071.06;2064176;28;20073;-72
2022/02/11 05:39:36;;;;;;;7.45;2.05;;;;;;;11.52;64.63;102066.59;2064303;28;20117;-72
2022/02/11 05:40:39;;;;;;;4.40;1.75;;;;;;;11.50;64.69;102070.94;2064007;28;20425;-71
2022/02/11 05:41:40;;;;;;;8.18;2.35;;;;;;;11.49;64.81;102070.03;2071590;28;20573;-72
2022/02/11 05:42:42;;;;;;;;;;;;;;;11.49;64.89;102066.50;2080902;28;20042;-72
2022/02/11 05:43:44;;;;;;;8.75;2.42;;;;;;;11.46;64.99;102064.66;2080353;28;19985;-73
2022/02/11 05:45:01;;;;;;;7.07;2.20;;;;;;;11.44;65.04;102069.00;2080529;28;20054;-72
2022/02/11 05:46:03;;;;;;;7.70;2.10;;;;;;;11.48;64.94;102075.31;2079956;28;20072;-71
2022/02/11 05:47:05;;;;;;;;;;;;;;;11.52;64.92;102070.16;2080627;28;20104;-72
2022/02/11 05:48:07;;;;;;;7.88;2.20;;;;;;;11.52;64.91;102071.91;2071536;28;19921;-72
2022/02/11 05:49:12;;;;;;;3.60;1.95;;;;;;;11.57;64.90;102073.84;2063530;28;20050;-72
2022/02/11 05:50:13;;;;;;;4.70;2.40;;;;;;;11.62;65.01;102076.63;2063610;28;20034;-72
2022/02/11 05:51:16;;;;;;;5.20;1.92;;;;;;;11.72;64.92;102075.19;2072077;28;20045;-72
2022/02/11 05:52:18;;;;;;;5.30;2.20;;;;;;;11.86;64.76;102080.09;2071943;28;20038;-72
2022/02/11 05:53:20;;;;;;;;;;;;;;;11.95;64.63;102084.75;2072477;28;20038;-72
2022/02/11 05:54:22;;;;;;;3.53;1.48;;;;;;;11.96;64.59;102084.81;2079876;28;19937;-72
2022/02/11 05:55:25;;;;;;;;;;;;;;;12.01;64.41;102087.63;2072216;28;20068;-72
2022/02/11 05:56:26;;;;;;;9.73;2.53;;;;;;;12.00;64.33;102092.88;2071823;28;20365;-72
2022/02/11 05:57:29;;;;;;;4.95;2.28;;;;;;;12.00;64.32;102092.88;2071765;28;20041;-72
2022/02/11 05:58:31;;;;;;;8.85;2.35;;;;;;;12.00;64.30;102083.19;2064218;28;20121;-72
2022/02/11 05:59:33;;;;;;;6.20;2.53;;;;;;;12.00;64.16;102087.59;2056420;28;20063;-72
2022/02/11 06:00:35;;;;;;;5.72;2.30;;;;;;;12.00;64.06;102090.22;2056988;28;20046;-72
2022/02/11 06:01:37;;;;;;;;;;;;;;;11.99;63.91;102086.69;2064572;28;20366;-72
2022/02/11 06:02:39;;;;;;;6.18;2.08;;;;;;;11.98;63.89;102101.66;2063960;28;19953;-72
2022/02/11 06:03:42;;;;;;;9.15;2.40;;;;;;;12.09;64.11;102095.78;2071807;28;20093;-72
2022/02/11 06:04:45;;;;;;;9.75;3.25;;;;;;;12.23;64.17;102094.47;2072060;28;20038;-72
2022/02/11 06:05:47;;;;;;;6.03;2.78;;;;;;;12.32;64.08;102100.94;2064171;28;20061;-71
2022/02/11 06:06:49;;;;;;;11.50;2.53;;;;;;;12.36;64.03;102104.56;2072107;28;20050;-72
2022/02/11 06:07:51;;;;;;;;;;;;;;;12.40;63.90;102111.78;2072882;28;20088;-72
2022/02/11 06:08:53;;;;;;;4.68;2.03;;;;;;;12.43;63.98;102109.19;2063793;28;20046;-72
2022/02/11 06:09:55;;;;;;;4.32;2.40;;;;;;;12.46;63.83;102105.75;2065642;28;20073;-72
2022/02/11 06:10:58;;;;;;;9.05;2.50;;;;;;;12.46;63.76;102101.34;2065887;28;20532;-72
2022/02/11 06:11:59;;;;;;;5.38;2.30;;;;;;;12.43;63.69;102100.34;2074196;28;20042;-72
2022/02/11 06:13:02;;;;;;;4.72;2.50;;;;;;;12.42;63.58;102099.44;2073404;28;20504;-72
2022/02/11 06:14:06;;;;;;;6.20;2.50;;;;;;;12.39;63.51;102102.03;2065765;28;20057;-72
2022/02/11 06:15:10;;;;;;;6.63;2.50;;;;;;;12.35;63.50;102100.13;2074354;28;20046;-71
2022/02/11 06:16:13;;;;;;;6.95;2.95;;;;;;;12.35;63.47;102108.06;2065431;28;20043;-73
2022/02/11 06:17:14;;;;;;;7.05;3.17;;;;;;;12.35;63.54;102106.31;2057931;28;20046;-73
2022/02/11 06:18:17;;;;;;;;;;;;;;;12.42;63.43;102104.75;2066016;28;20069;-73
2022/02/11 06:19:18;;;;;;;7.85;3.10;;;;;;;12.43;63.46;102106.53;2073795;28;20312;-72
2022/02/11 06:20:28;;;;;;;;;;;;;;;12.49;63.41;102111.13;2081543;28;20109;-72
2022/02/11 06:21:29;;;;;;;7.10;2.85;;;;;;;12.47;63.47;102110.19;2072687;28;19928;-72
2022/02/11 06:22:33;;;;;;;12.00;6.35;;;;;;;12.47;63.52;102111.06;2064980;28;20121;-72
2022/02/11 06:23:35;;;;;;;10.98;5.05;;;;;;;12.49;63.51;102105.81;2065426;28;20906;-72
2022/02/11 06:24:38;;;;;;;7.93;3.40;;;;;;;12.53;63.46;102108.63;2073451;28;20498;-72
2022/02/11 06:25:43;;;;;;;12.35;3.97;;;;;;;12.56;63.28;102106.06;2072421;28;20112;-74
2022/02/11 06:26:45;;;;;;;8.43;4.57;;;;;;;12.60;63.32;102102.63;2065668;28;20066;-73
2022/02/11 06:27:47;;;;;;;10.88;4.35;;;;;;;12.66;63.22;102104.59;2073432;28;20050;-72
2022/02/11 06:28:50;;;;;;;7.57;2.95;;;;;;;12.72;63.21;102102.09;2073232;28;20077;-72
2022/02/11 06:29:51;;;;;;;6.13;3.00;;;;;;;12.78;63.05;102105.81;2069702;28;20538;-72
2022/02/11 06:30:54;;;;;;;;;;;;;;;12.83;62.81;102105.94;2073408;28;20046;-72
2022/02/11 06:31:55;;;;;;;7.80;3.15;;;;;;;12.84;62.79;102110.41;2065625;28;19976;-72
2022/02/11 06:32:58;;;;;;;;;;;;;;;12.89;62.79;102119.38;2065902;28;20049;-73
2022/02/11 06:34:00;;;;;;;6.85;3.40;;;;;;;12.91;62.67;102114.13;2065313;28;19949;-72
2022/02/11 06:35:02;;;;;;;8.48;3.47;;;;;;;12.92;62.59;102118.56;2073777;28;20392;-72
2022/02/11 06:36:07;;;;;;;6.32;2.80;;;;;;;12.91;62.51;102124.72;2073566;28;20037;-73
2022/02/11 06:37:08;;;;;;;7.10;3.03;;;;;;;12.89;62.56;102113.16;2074161;28;20121;-72
2022/02/11 06:38:11;;;;;;;6.00;3.28;;;;;;;12.91;62.60;102115.03;2081719;28;20048;-73
2022/02/11 06:39:13;;;;;;;7.07;3.95;;;;;;;12.93;62.68;102115.06;2081153;28;20125;-72
2022/02/11 06:40:20;;;;;;;6.05;2.50;;;;;;;12.96;62.63;102118.69;2065826;28;20053;-73
2022/02/11 06:41:23;;;;;;;6.22;2.30;;;;;;;13.00;62.53;102117.00;2066064;28;20053;-72
2022/02/11 06:42:24;;;;;;;7.45;3.50;;;;;;;13.06;62.46;102122.50;2065960;28;20491;-72
2022/02/11 06:43:27;;;;;;;8.90;3.47;;;;;;;13.12;62.39;102113.00;2073458;28;20037;-72
2022/02/11 06:44:28;;;;;;;9.82;3.03;;;;;;;13.19;62.26;102116.72;2082424;28;20495;-72
2022/02/11 06:45:31;;;;;;;;;;;;;;;13.23;62.05;102115.91;2083048;28;20481;-73
2022/02/11 06:46:34;;;;;;;8.68;3.17;;;;;;;13.23;62.15;102118.56;2081667;28;19953;-72
2022/02/11 06:47:37;;;;;;;7.25;3.33;;;;;;;13.25;61.94;102127.47;2081660;28;20107;-71
2022/02/11 06:48:40;;;;;;;5.88;3.40;;;;;;;13.25;62.11;102129.22;2080853;28;20056;-71
2022/02/11 06:49:41;;;;;;;6.90;2.90;;;;;;;13.26;62.03;102125.72;2072094;28;20524;-72
2022/02/11 06:50:46;;;;;;;9.05;3.30;;;;;;;13.28;62.02;102127.53;2072935;28;20042;-71
2022/02/11 06:51:52;;;;;;;11.18;3.55;;;;;;;13.33;62.07;102122.34;2073210;28;20045;-71
2022/02/11 06:52:56;;;;;;;11.35;3.88;;;;;;;13.38;62.16;102128.69;2065927;28;20046;-71
2022/02/11 06:53:59;;;;;;;7.57;3.00;;;;;;;13.45;62.13;102131.56;2065792;28;20038;-71
2022/02/11 06:55:02;;;;;;;;;;;;;;;13.53;61.93;102132.63;2073859;28;20038;-72
2022/02/11 06:56:05;;;;;;;7.10;3.05;;;;;;;13.57;62.04;102123.91;2070316;28;19921;-72
2022/02/11 06:57:07;;;;;;;6.05;3.42;;;;;;;13.66;62.10;102130.28;2065778;28;20042;-71
2022/02/11 06:58:10;;;;;;;;;;;;;;;13.71;62.03;102132.19;2073713;28;20041;-72
2022/02/11 06:59:13;;;;;;;7.18;3.20;;;;;;;13.72;61.91;102128.66;2081881;28;19921;-72
2022/02/11 07:00:16;;;;;;;7.47;3.58;;;;;;;13.80;62.15;102137.72;2073255;28;20049;-71
2022/02/11 07:01:21;;;;;;;8.55;3.35;;;;;;;13.87;62.11;102133.47;2065623;28;20081;-72
2022/02/11 07:02:25;;;;;;;16.33;4.85;;;;;;;13.94;62.04;102135.41;2065538;28;20510;-72
2022/02/11 07:03:28;;;;;;;8.23;2.95;;;;;;;13.98;62.07;102138.16;2065609;28;20089;-71
2022/02/11 07:04:30;;;;;;;10.63;3.22;;;;;;;14.03;61.96;102146.25;2073492;28;20038;-71
2022/02/11 07:05:35;;;;;;;8.20;3.15;;;;;;;14.08;61.85;102135.72;2065257;28;20467;-71
2022/02/11 07:06:37;;;;;;;10.43;3.00;;;;;;;14.12;61.73;102137.59;2066910;28;20134;-72
2022/02/11 07:07:41;;;;;;;8.07;3.17;;;;;;;14.20;61.60;102141.31;2081848;28;20069;-71
2022/02/11 07:08:44;;;;;;;9.32;3.03;;;;;;;14.24;61.50;102138.75;2081128;28;20501;-72
2022/02/11 07:09:45;;;;;;;15.15;3.22;;;;;;;14.27;61.40;102138.84;2072993;28;20050;-72
2022/02/11 07:10:47;;;;;;;10.68;3.42;;;;;;;14.30;61.24;102141.59;2069176;28;20056;-71
2022/02/11 07:11:50;;;;;;;7.85;2.88;;;;;;;14.31;61.39;102134.47;2082034;28;20441;-72
2022/02/11 07:12:56;;;;;;;9.43;2.97;;;;;;;14.33;61.17;102146.03;2073142;28;20046;-71
2022/02/11 07:13:57;;;;;;;6.80;2.35;;;;;;;14.33;60.95;102146.94;2074124;28;20079;-71
2022/02/11 07:15:00;;;;;;;11.40;3.42;;;;;;;14.36;61.02;102146.13;2073002;28;20605;-71
2022/02/11 07:16:04;;;;;;;4.70;2.05;;;;;;;14.42;61.02;102153.38;2065906;28;20046;-70
2022/02/11 07:17:06;;;;;;;9.40;2.83;;;;;;;14.49;61.00;102134.03;2073744;28;20482;-71
2022/02/11 07:18:08;;;;;;;9.02;3.72;;;;;;;14.59;60.71;102146.66;2082199;28;20038;-71
2022/02/11 07:19:11;;;;;;;6.80;2.30;;;;;;;14.66;60.68;102148.56;2081144;28;20098;-73
2022/02/11 07:20:14;;;;;;;4.85;2.53;;;;;;;14.73;60.42;102148.75;2081863;28;20048;-71
2022/02/11 07:21:16;;;;;;;6.78;2.85;;;;;;;14.82;60.40;102152.47;2081954;28;20099;-71
2022/02/11 07:22:18;;;;;;;9.25;2.95;;;;;;;14.90;60.10;102149.06;2080326;28;20048;-71
2022/02/11 07:23:22;;;;;;;6.95;2.80;;;;;;;15.01;59.76;102149.31;2081719;28;20439;-71
2022/02/11 07:24:24;;;;;;;5.18;2.70;;;;;;;15.07;59.57;102147.66;2081739;28;20401;-72
2022/02/11 07:25:26;;;;;;;7.25;3.17;;;;;;;15.23;59.77;102143.50;2081694;28;20120;-72
2022/02/11 07:26:28;;;;;;;7.05;3.20;;;;;;;15.38;59.67;102140.25;2071006;28;20183;-71
2022/02/11 07:27:30;;;;;;;;;;;;;;;15.49;59.33;102147.53;2073559;28;20054;-71
2022/02/11 07:28:32;;;;;;;10.02;3.65;;;;;;;15.62;59.43;102142.50;2081786;28;19920;-71
2022/02/11 07:29:34;;;;;;;11.38;4.28;;;;;;;15.69;59.20;102139.03;2081687;28;20061;-71
2022/02/11 07:30:37;;;;;;;;;;;;;;;15.69;58.87;102137.28;2082305;28;20103;-72
2022/02/11 07:31:38;;;;;;;9.18;4.00;;;;;;;15.67;59.10;102147.03;2080887;28;19924;-71
2022/02/11 07:32:41;;;;;;;8.52;2.67;;;;;;;15.66;59.14;102145.22;2081632;28;20141;-71
2022/02/11 07:33:43;;;;;;;8.65;2.70;;;;;;;15.62;59.19;102146.03;2081659;28;20144;-71
2022/02/11 07:34:45;;;;;;;8.65;4.78;;;;;;;15.61;59.05;102146.91;2082108;28;20096;-71
2022/02/11 07:35:48;;;;;;;13.40;7.25;;;;;;;15.62;59.09;102148.69;2081672;28;20059;-71
2022/02/11 07:36:49;;;;;;;11.68;4.55;;;;;;;15.66;59.09;102157.63;2081859;28;20054;-71
2022/02/11 07:37:52;;;;;;;9.70;6.15;;;;;;;15.67;59.00;102149.69;2081773;28;20057;-71
2022/02/11 07:38:56;;;;;;;9.32;5.18;;;;;;;15.69;58.86;102153.25;2081972;28;20052;-71
2022/02/11 07:39:59;;;;;;;15.63;10.00;;;;;;;15.66;58.64;102149.66;2081470;28;20049;-71
2022/02/11 07:41:02;;;;;;;13.43;6.53;;;;;;;15.60;58.54;102154.88;2073067;28;20042;-71
2022/02/11 07:42:06;;;;;;;10.25;5.07;;;;;;;15.57;58.50;102158.38;2072975;28;20106;-71
2022/02/11 07:43:08;;;;;;;15.70;6.75;;;;;;;15.54;58.68;102156.56;2065457;28;20077;-73
2022/02/11 07:44:11;;;;;;;9.73;5.30;;;;;;;15.53;58.58;102159.19;2073724;28;20069;-71
2022/02/11 07:45:13;;;;;;;9.30;4.47;;;;;;;15.52;58.66;102150.31;2072848;28;20049;-72
2022/02/11 07:46:16;;;;;;;14.13;4.85;;;;;;;15.57;58.73;102154.81;2064842;28;20034;-71
2022/02/11 07:47:18;;;;;;;8.00;4.35;;;;;;;15.58;58.67;102153.94;2059833;28;20078;-71
2022/02/11 07:48:20;;;;;;;11.25;5.97;;;;;;;15.64;58.72;102146.97;2072513;28;20046;-73
2022/02/11 07:49:24;;;;;;;15.63;10.02;;;;;;;15.81;58.87;102156.16;2073180;28;20053;-71
2022/02/11 07:50:28;;;;;;;14.60;9.50;;;;;;;15.89;58.84;102156.25;2065121;28;20116;-71
2022/02/11 07:51:30;;;;;;;11.95;8.88;;;;;;;15.91;58.65;102159.84;2073328;28;20061;-72
2022/02/11 07:52:35;;;;;;;14.90;7.07;;;;;;;15.94;58.43;102158.13;2081619;28;20043;-71
2022/02/11 07:53:38;;;;;;;9.45;6.10;;;;;;;16.00;58.52;102153.78;2081511;28;20072;-71
2022/02/11 07:54:42;;;;;;;11.13;6.85;;;;;;;16.06;58.21;102156.53;2081332;28;20038;-71
2022/02/11 07:55:45;;;;;;;8.57;5.00;;;;;;;16.11;58.08;102150.41;2081340;28;20064;-72
2022/02/11 07:56:46;;;;;;;7.53;4.00;;;;;;;16.24;57.92;102147.03;2081265;28;20551;-71
2022/02/11 07:57:49;;;;;;;8.38;3.50;;;;;;;16.36;57.79;102143.66;2081454;28;20444;-71
2022/02/11 07:58:51;;;;;;;11.23;5.22;;;;;;;16.52;57.72;102148.31;2081066;28;20052;-71
2022/02/11 07:59:53;;;;;;;4.70;2.80;;;;;;;16.65;57.43;102160.97;2081565;28;20041;-71
2022/02/11 08:00:57;;;;;;;3.83;2.17;;;;;;;16.68;57.22;102160.09;2081301;28;20049;-71
2022/02/11 08:01:58;;;;;;;7.05;3.00;;;;;;;16.66;56.87;102162.78;2081261;28;20045;-71
2022/02/11 08:03:01;;;;;;;;;;;;;;;16.62;56.54;102160.94;2073031;28;20081;-72
2022/02/11 08:04:02;;;;;;;8.02;3.53;;;;;;;16.59;56.99;102160.88;2072690;28;19975;-71
2022/02/11 08:05:05;;;;;;;13.85;4.97;;;;;;;16.59;56.82;102162.63;2081261;28;20069;-71
2022/02/11 08:06:09;;;;;;;12.00;3.95;;;;;;;16.57;56.77;102162.59;2080717;28;20044;-71
2022/02/11 08:07:10;;;;;;;6.93;3.35;;;;;;;16.67;56.83;102158.34;2079933;28;20037;-72
2022/02/11 08:08:13;;;;;;;7.13;3.72;;;;;;;16.87;56.90;102167.47;2080935;28;20037;-71
2022/02/11 08:09:16;;;;;;;9.23;3.53;;;;;;;17.14;56.95;102167.78;2080961;28;20044;-71
2022/02/11 08:10:19;;;;;;;9.05;3.67;;;;;;;17.48;56.63;102170.81;2081037;28;20092;-71
2022/02/11 08:11:21;;;;;;;12.48;7.38;;;;;;;17.70;56.34;102174.63;2081280;28;20045;-71
2022/02/11 08:12:23;;;;;;;12.05;5.28;;;;;;;17.72;55.96;102173.75;2081462;28;20046;-71
2022/02/11 08:13:26;;;;;;;6.15;2.78;;;;;;;17.64;55.72;102163.91;2081124;28;20042;-71
2022/02/11 08:14:30;;;;;;;7.03;3.95;;;;;;;17.55;55.39;102164.66;2080864;28;20477;-71
2022/02/11 08:15:31;;;;;;;9.05;3.45;;;;;;;17.38;54.84;102160.94;2072710;28;20065;-71
2022/02/11 08:16:35;;;;;;;10.40;4.00;;;;;;;17.19;54.55;102167.88;2072697;28;20069;-71
2022/02/11 08:17:36;;;;;;;9.07;3.80;;;;;;;17.04;54.62;102168.59;2072457;28;20042;-71